Time;durP1;ratioP1;P1;durP2;ratioP2;P2;SDS_P1;SDS_P2;PMS_P1;PMS_P2;Temp;Humidity;BMP_temperature;BMP_pressure;BME280_temperature;BME280_humidity;BME280_pressure;Samples;Min_cycle;Max_cycle;Signal;HPM_P1;HPM_P2
2023/07/15 00:01:30;;;;;;;4.13;3.73;;;13.80;99.90;13.20;100519;;;;562460;251;24111;-78
2023/07/15 00:03:54;;;;;;;5.20;4.10;;;13.80;99.90;13.20;100522;;;;577884;244;24062;-76
2023/07/15 00:06:23;;;;;;;5.80;4.30;;;13.90;99.90;13.20;100519;;;;578247;244;24128;-77
2023/07/15 00:08:50;;;;;;;4.40;3.20;;;13.90;99.90;13.30;100517;;;;576033;243;24105;-76
2023/07/15 00:11:27;;;;;;;4.10;3.80;;;13.90;99.90;13.30;100518;;;;578105;244;24079;-78
2023/07/15 00:13:56;;;;;;;5.00;3.50;;;13.90;99.90;13.30;100524;;;;586934;244;25109;-77
2023/07/15 00:16:26;;;;;;;5.43;3.53;;;13.90;99.90;13.30;100530;;;;572523;247;24093;-77
2023/07/15 00:18:51;;;;;;;4.37;3.90;;;13.90;99.90;13.30;100525;;;;581438;244;24113;-77
2023/07/15 00:21:22;;;;;;;5.87;4.10;;;13.90;99.90;13.40;100516;;;;566727;251;24128;-76
2023/07/15 00:23:55;;;;;;;6.77;4.30;;;14.00;99.90;13.40;100518;;;;572820;247;24098;-77
2023/07/15 00:26:18;;;;;;;4.57;3.53;;;14.00;99.90;13.40;100518;;;;581353;247;24167;-76
2023/07/15 00:28:46;;;;;;;6.30;3.80;;;14.00;99.90;13.40;100518;;;;566414;251;24298;-76
2023/07/15 00:31:17;;;;;;;5.87;3.50;;;14.00;99.90;13.40;100519;;;;577193;247;24084;-78
2023/07/15 00:33:42;;;;;;;5.97;3.23;;;14.00;99.90;13.40;100521;;;;562238;251;24120;-77
2023/07/15 00:36:10;;;;;;;3.90;2.87;;;14.00;99.90;13.40;100510;;;;572508;247;24098;-77
2023/07/15 00:38:41;;;;;;;3.37;3.17;;;14.00;99.90;13.30;100515;;;;581225;247;24090;-78
2023/07/15 00:41:30;;;;;;;4.63;4.07;;;14.00;99.90;13.30;100514;;;;567532;250;24133;-77
2023/07/15 00:44:02;;;;;;;5.03;3.13;;;14.00;99.90;13.30;100516;;;;573852;246;24097;-78
2023/07/15 00:47:21;;;;;;;8.10;3.63;;;13.90;99.90;13.30;100520;;;;563084;251;24170;-77
2023/07/15 00:49:52;;;;;;;4.70;3.43;;;13.90;99.90;13.20;100507;;;;572716;246;24107;-76
2023/07/15 00:52:19;;;;;;;4.60;3.90;;;13.90;99.90;13.20;100518;;;;571177;246;24105;-76
2023/07/15 00:54:44;;;;;;;5.13;3.53;;;13.80;99.90;13.20;100506;;;;573033;246;24102;-77
2023/07/15 00:57:12;;;;;;;5.73;4.10;;;13.80;99.90;13.10;100510;;;;572961;246;24099;-77
2023/07/15 00:59:40;;;;;;;4.10;3.43;;;13.80;99.90;13.10;100511;;;;572548;247;24088;-78
2023/07/15 01:02:10;;;;;;;5.80;3.80;;;13.80;99.90;13.10;100515;;;;572902;247;24186;-77
2023/07/15 01:04:36;;;;;;;6.17;3.93;;;13.80;99.90;13.10;100514;;;;562421;251;24120;-77
2023/07/15 01:07:07;;;;;;;5.67;3.13;;;13.80;99.90;13.10;100516;;;;572820;247;25151;-77
2023/07/15 01:09:37;;;;;;;8.70;3.80;;;13.70;99.90;13.00;100512;;;;581592;246;24123;-77
2023/07/15 01:12:02;;;;;;;5.97;3.43;;;13.70;99.90;13.00;100519;;;;566472;251;24181;-77
2023/07/15 01:14:31;;;;;;;5.63;3.00;;;13.60;99.90;13.00;100524;;;;577595;247;24090;-76
2023/07/15 01:16:59;;;;;;;5.60;3.80;;;13.60;99.90;13.00;100524;;;;566931;251;24108;-77
2023/07/15 01:19:27;;;;;;;5.53;3.80;;;13.60;99.90;12.90;100514;;;;581642;247;25157;-77
2023/07/15 01:21:58;;;;;;;7.03;3.70;;;13.60;99.90;12.90;100516;;;;566801;251;24107;-76
2023/07/15 01:24:26;;;;;;;5.23;3.67;;;13.60;99.90;12.90;100512;;;;570531;247;24123;-76
2023/07/15 01:26:50;;;;;;;3.30;3.10;;;13.60;99.90;12.90;100515;;;;572639;247;24100;-76
2023/07/15 01:29:18;;;;;;;9.50;3.40;;;13.50;99.90;12.90;100514;;;;578538;244;24094;-76
2023/07/15 01:31:46;;;;;;;5.83;3.10;;;13.50;99.90;12.90;100523;;;;572669;246;24076;-76
2023/07/15 01:34:15;;;;;;;7.20;4.70;;;13.50;99.90;12.90;100516;;;;572347;247;36246;-77
2023/07/15 01:36:43;;;;;;;5.28;4.78;;;13.50;99.90;12.90;100518;;;;561980;251;35456;-76
2023/07/15 01:39:11;;;;;;;7.63;3.80;;;13.50;99.90;12.90;100516;;;;577321;247;24117;-78
2023/07/15 01:41:39;;;;;;;3.43;3.10;;;13.60;99.90;12.90;100521;;;;566423;251;24215;-77
2023/07/15 01:44:06;;;;;;;4.70;3.30;;;13.50;99.90;12.90;100507;;;;577325;247;24068;-76
2023/07/15 01:46:39;;;;;;;6.17;3.30;;;13.50;99.90;12.90;100504;;;;570828;251;24112;-76
2023/07/15 01:49:03;;;;;;;3.50;3.20;;;13.50;99.90;12.90;100505;;;;562323;251;24169;-76
2023/07/15 01:51:30;;;;;;;4.67;3.27;;;13.50;99.90;12.90;100498;;;;578100;246;24088;-76
2023/07/15 01:53:58;;;;;;;6.17;4.13;;;13.60;99.90;12.90;100492;;;;578875;246;24106;-76
2023/07/15 01:56:26;;;;;;;3.70;3.40;;;13.60;99.90;12.90;100494;;;;572025;246;24110;-76
2023/07/15 01:58:54;;;;;;;3.93;3.63;;;13.60;99.90;13.00;100500;;;;573180;246;24170;-76
2023/07/15 02:01:22;;;;;;;3.87;3.10;;;13.60;99.90;13.00;100495;;;;573558;246;24108;-76
2023/07/15 02:03:51;;;;;;;6.83;4.00;;;13.70;99.90;13.00;100494;;;;578023;246;24125;-76
2023/07/15 02:06:18;;;;;;;7.87;3.43;;;13.70;99.90;13.00;100496;;;;567308;251;24137;-76
2023/07/15 02:08:46;;;;;;;3.53;3.30;;;13.70;99.90;13.00;100492;;;;578167;246;24085;-77
2023/07/15 02:11:14;;;;;;;4.47;3.67;;;13.70;99.90;13.00;100502;;;;566938;251;24097;-77
2023/07/15 02:13:42;;;;;;;5.80;5.03;;;13.70;99.90;13.00;100509;;;;572968;247;36800;-77
2023/07/15 02:16:10;;;;;;;8.87;5.70;;;13.70;99.90;13.10;100499;;;;562029;251;46354;-77
2023/07/15 02:18:38;;;;;;;4.00;3.60;;;13.70;99.90;13.10;100493;;;;577618;247;24094;-76
2023/07/15 02:21:06;;;;;;;3.83;3.53;;;13.70;99.90;13.10;100488;;;;566657;251;24104;-77
2023/07/15 02:23:34;;;;;;;6.83;4.23;;;13.70;99.90;13.10;100495;;;;577285;247;24063;-76
2023/07/15 02:26:02;;;;;;;5.07;3.37;;;13.80;99.90;13.10;100496;;;;573437;247;24089;-76
2023/07/15 02:28:30;;;;;;;3.10;2.90;;;13.80;99.90;13.10;100500;;;;566533;251;24171;-76
2023/07/15 02:30:58;;;;;;;3.97;3.47;;;13.80;99.90;13.20;100489;;;;577154;247;24095;-76
2023/07/15 02:33:26;;;;;;;6.07;3.73;;;13.80;99.90;13.20;100493;;;;566487;251;24143;-76
2023/07/15 02:35:54;;;;;;;11.47;4.20;;;13.80;99.90;13.20;100483;;;;577759;247;24106;-76
2023/07/15 02:38:22;;;;;;;3.93;3.43;;;13.80;99.90;13.30;100493;;;;566535;251;24127;-76
2023/07/15 02:40:50;;;;;;;6.20;3.60;;;13.90;99.90;13.30;100492;;;;577540;247;24134;-75
2023/07/15 02:43:19;;;;;;;5.13;3.23;;;14.00;99.90;13.40;100489;;;;582067;247;24076;-76
2023/07/15 02:45:52;;;;;;;5.63;3.10;;;14.00;99.90;13.50;100488;;;;572556;247;24083;-76
2023/07/15 02:48:20;;;;;;;5.20;3.67;;;14.10;99.90;13.50;100490;;;;572930;247;24213;-76
2023/07/15 02:50:57;;;;;;;3.43;3.13;;;14.10;99.90;13.60;100491;;;;562731;251;24121;-76
2023/07/15 02:53:26;;;;;;;4.60;3.43;;;14.30;99.90;13.70;100499;;;;579044;244;24059;-76
2023/07/15 02:55:54;;;;;;;4.07;3.50;;;14.40;99.90;13.80;100491;;;;572900;247;24094;-76
2023/07/15 02:58:22;;;;;;;9.10;3.47;;;14.40;99.90;13.90;100493;;;;577305;247;24087;-76
2023/07/15 03:00:53;;;;;;;6.73;3.73;;;14.50;99.90;14.00;100501;;;;573065;247;24121;-76
2023/07/15 03:03:20;;;;;;;6.17;3.97;;;14.60;99.90;14.10;100492;;;;562832;250;24181;-76
2023/07/15 03:05:48;;;;;;;5.17;3.87;;;14.70;99.90;14.20;100490;;;;563566;251;24148;-77
2023/07/15 03:08:16;;;;;;;6.87;4.27;;;14.80;99.90;14.20;100483;;;;573299;246;24089;-77
2023/07/15 03:10:44;;;;;;;3.93;3.63;;;14.80;99.90;14.30;100478;;;;573392;246;24081;-77
2023/07/15 03:13:13;;;;;;;5.97;4.63;;;15.00;99.90;14.40;100485;;;;581853;246;24101;-77
2023/07/15 03:15:42;;;;;;;7.70;3.60;;;15.10;99.90;14.50;100484;;;;577560;246;24090;-77
2023/07/15 03:18:10;;;;;;;7.40;4.07;;;15.20;99.90;14.60;100480;;;;571233;246;24080;-76
2023/07/15 03:20:41;;;;;;;6.80;4.23;;;15.20;99.90;14.80;100483;;;;573428;247;24121;-77
2023/07/15 03:23:06;;;;;;;4.80;4.10;;;15.30;99.90;15.00;100478;;;;579011;244;24053;-76
2023/07/15 03:25:34;;;;;;;5.77;4.10;;;15.50;99.90;15.20;100476;;;;573159;247;24088;-77
2023/07/15 03:28:02;;;;;;;5.33;4.43;;;15.80;99.90;15.50;100479;;;;577855;246;24102;-77
2023/07/15 03:30:30;;;;;;;4.63;3.97;;;16.00;99.90;15.70;100473;;;;567107;251;24085;-76
2023/07/15 03:32:58;;;;;;;4.37;3.83;;;16.30;99.90;16.30;100480;;;;577486;247;24103;-77
2023/07/15 03:35:26;;;;;;;6.40;3.87;;;16.80;99.90;17.00;100468;;;;566901;251;24092;-78
2023/07/15 03:37:54;;;;;;;4.57;3.60;;;17.50;99.90;17.70;100483;;;;571040;251;24115;-77
2023/07/15 03:40:24;;;;;;;4.50;3.20;;;18.20;99.90;18.50;100476;;;;573036;247;24147;-77
2023/07/15 03:42:49;;;;;;;3.43;2.80;;;19.00;99.90;19.20;100469;;;;577376;245;24154;-77
2023/07/15 03:45:17;;;;;;;3.07;2.37;;;19.70;99.90;19.90;100462;;;;572652;247;23106;-77
2023/07/15 03:47:45;;;;;;;4.57;2.23;;;20.30;99.90;20.50;100463;;;;581719;247;24157;-77
2023/07/15 03:50:14;;;;;;;4.33;2.23;;;21.00;99.90;21.10;100456;;;;567672;251;24096;-79
2023/07/15 03:52:41;;;;;;;2.47;2.00;;;21.60;99.90;21.70;100456;;;;578572;247;24148;-76
2023/07/15 03:55:09;;;;;;;2.93;1.90;;;22.20;99.90;22.10;100464;;;;567793;251;24093;-76
2023/07/15 03:57:37;;;;;;;3.20;2.47;;;22.60;99.90;22.30;100462;;;;573553;247;24155;-77
2023/07/15 04:00:17;;;;;;;1.83;1.70;;;22.90;99.90;22.80;100458;;;;566501;251;23175;-77
2023/07/15 04:02:36;;;;;;;2.60;2.13;;;23.30;99.90;23.20;100455;;;;572380;247;24153;-76
2023/07/15 04:05:05;;;;;;;2.27;2.07;;;24.00;99.90;23.40;100456;;;;577362;247;23101;-76
2023/07/15 04:07:33;;;;;;;2.13;1.93;;;24.10;99.90;23.40;100448;;;;570278;251;24187;-76
2023/07/15 04:10:01;;;;;;;2.30;2.00;;;24.10;99.90;23.50;100458;;;;577230;247;24095;-76
2023/07/15 04:12:29;;;;;;;2.23;2.13;;;24.10;99.90;23.60;100457;;;;566416;251;23143;-76
2023/07/15 04:14:57;;;;;;;2.60;2.40;;;24.20;99.90;23.80;100462;;;;571696;246;23108;-78
2023/07/15 04:17:25;;;;;;;2.40;2.20;;;24.40;99.90;24.10;100455;;;;567677;251;23133;-76
2023/07/15 04:19:53;;;;;;;2.53;2.13;;;24.70;99.90;24.00;100462;;;;577992;246;23158;-76
2023/07/15 04:22:21;;;;;;;4.17;2.57;;;24.70;99.90;24.20;100460;;;;567600;251;24104;-77
2023/07/15 04:24:49;;;;;;;3.30;2.20;;;24.90;99.90;24.20;100451;;;;578223;246;23139;-77
2023/07/15 04:27:17;;;;;;;3.73;2.27;;;24.90;99.90;24.30;100457;;;;567395;251;23129;-76
2023/07/15 04:29:45;;;;;;;2.47;2.23;;;25.00;99.90;24.60;100450;;;;578092;246;24133;-77
2023/07/15 04:32:12;;;;;;;4.13;2.40;;;25.30;99.90;25.30;100458;;;;567316;251;23135;-78
2023/07/15 04:34:40;;;;;;;2.47;2.27;;;25.90;99.90;25.80;100463;;;;577604;247;23093;-77
2023/07/15 04:37:08;;;;;;;3.27;2.30;;;26.50;99.90;26.20;100461;;;;566680;251;23135;-77
2023/07/15 04:39:36;;;;;;;2.20;2.07;;;27.00;99.90;26.60;100468;;;;577694;247;24090;-77
2023/07/15 04:42:04;;;;;;;5.87;2.20;;;27.50;99.90;27.10;100466;;;;566744;251;23116;-77
2023/07/15 04:44:32;;;;;;;2.03;1.83;;;27.90;98.10;27.50;100470;;;;573211;247;24183;-77
2023/07/15 04:47:00;;;;;;;4.82;2.10;;;28.40;96.70;28.00;100472;;;;566777;251;23114;-78
2023/07/15 04:49:28;;;;;;;1.87;1.75;;;28.90;94.90;28.70;100475;;;;577459;247;23096;-77
2023/07/15 04:51:56;;;;;;;3.80;2.00;;;29.60;93.10;29.70;100476;;;;566807;251;23119;-77
2023/07/15 04:54:24;;;;;;;2.30;2.10;;;30.40;90.90;30.40;100475;;;;577502;247;24096;-76
2023/07/15 04:56:52;;;;;;;2.35;1.80;;;31.40;87.90;31.60;100474;;;;566905;251;23109;-76
2023/07/15 04:59:19;;;;;;;2.42;2.17;;;32.50;83.00;32.50;100476;;;;577327;247;24119;-77
2023/07/15 05:01:47;;;;;;;2.30;1.85;;;33.40;77.80;33.00;100478;;;;566318;251;24139;-76
2023/07/15 05:04:15;;;;;;;3.37;1.90;;;34.10;72.40;32.80;100481;;;;577316;247;23099;-77
2023/07/15 05:06:43;;;;;;;2.78;2.03;;;34.10;70.00;32.80;100476;;;;562435;251;23153;-77
2023/07/15 05:09:11;;;;;;;4.50;1.80;;;34.10;68.40;33.50;100476;;;;578838;244;23069;-76
2023/07/15 05:11:39;;;;;;;3.42;2.00;;;34.50;65.80;33.80;100477;;;;572670;246;23085;-77
2023/07/15 05:14:07;;;;;;;4.82;1.70;;;34.90;64.20;34.20;100478;;;;577270;247;23114;-78
2023/07/15 05:16:35;;;;;;;1.95;1.85;;;35.40;64.00;34.80;100484;;;;566591;251;23129;-78
2023/07/15 05:19:03;;;;;;;1.87;1.70;;;35.90;62.00;34.80;100475;;;;577265;247;23148;-79
2023/07/15 05:21:31;;;;;;;2.28;1.55;;;36.00;60.50;35.60;100483;;;;576709;244;23067;-79
2023/07/15 05:23:59;;;;;;;2.17;1.98;;;36.60;58.70;36.30;100488;;;;572980;245;23127;-78
2023/07/15 05:26:26;;;;;;;3.65;2.28;;;37.20;57.40;36.80;100477;;;;578469;246;24133;-79
2023/07/15 05:28:54;;;;;;;2.45;2.28;;;37.70;56.10;37.10;100487;;;;572443;251;23112;-78
2023/07/15 05:31:22;;;;;;;2.42;2.22;;;38.20;54.40;36.90;100483;;;;579932;244;23066;-78
2023/07/15 05:33:50;;;;;;;2.67;2.47;;;38.10;53.50;37.00;100487;;;;573717;245;24088;-79
2023/07/15 05:36:18;;;;;;;2.90;2.10;;;38.10;53.10;36.90;100478;;;;571473;251;23123;-78
2023/07/15 05:38:46;;;;;;;2.70;2.50;;;38.00;52.60;36.90;100490;;;;573106;246;24130;-78
2023/07/15 05:41:14;;;;;;;5.70;3.17;;;37.90;52.70;37.00;100491;;;;571384;246;23133;-78
2023/07/15 05:43:42;;;;;;;3.85;3.17;;;38.10;52.50;37.00;100497;;;;566825;251;23171;-78
2023/07/15 05:46:10;;;;;;;5.03;3.20;;;38.00;52.20;36.80;100496;;;;577466;247;23089;-79
2023/07/15 05:48:38;;;;;;;2.60;2.40;;;38.20;53.00;37.40;100502;;;;566718;251;23119;-78
2023/07/15 05:51:09;;;;;;;2.80;2.60;;;38.60;51.40;37.90;100499;;;;577979;247;24109;-78
2023/07/15 05:53:36;;;;;;;2.92;2.42;;;38.60;51.90;37.80;100491;;;;566991;251;23119;-79
2023/07/15 05:56:04;;;;;;;3.22;2.60;;;38.60;51.80;38.10;100492;;;;577825;247;24160;-79
2023/07/15 05:58:35;;;;;;;4.50;2.12;;;38.90;51.00;38.50;100491;;;;582207;247;24158;-79
2023/07/15 06:01:00;;;;;;;1.80;1.70;;;39.20;50.20;38.70;100487;;;;562379;251;23146;-79
2023/07/15 06:03:27;;;;;;;3.28;2.40;;;39.50;49.80;39.20;100484;;;;572667;247;23093;-79
2023/07/15 06:06:05;;;;;;;4.78;2.33;;;39.90;49.30;38.90;100498;;;;572464;247;23101;-79
2023/07/15 06:08:31;;;;;;;2.35;2.15;;;39.80;48.80;39.50;100498;;;;572629;247;23126;-80
2023/07/15 06:10:58;;;;;;;2.92;2.03;;;40.50;48.10;40.00;100499;;;;577174;246;23115;-78
2023/07/15 06:13:27;;;;;;;2.30;2.10;;;40.50;48.60;39.80;100506;;;;567859;251;23121;-78
2023/07/15 06:15:55;;;;;;;3.58;2.00;;;40.50;48.30;39.60;100504;;;;577261;247;23126;-78
2023/07/15 06:18:23;;;;;;;3.33;3.03;;;40.40;48.20;40.00;100503;;;;566414;251;26371;-78
2023/07/15 06:20:50;;;;;;;2.47;2.28;;;40.50;48.80;40.80;100509;;;;577298;247;23089;-78
2023/07/15 06:23:18;;;;;;;5.18;2.20;;;41.20;47.30;41.40;100507;;;;566861;251;23130;-80
2023/07/15 06:25:46;;;;;;;3.62;2.10;;;41.90;47.40;42.20;100498;;;;577593;247;23078;-78
2023/07/15 06:28:14;;;;;;;2.67;2.45;;;42.60;46.90;42.90;100510;;;;566888;251;23115;-78
2023/07/15 06:30:42;;;;;;;2.00;1.50;;;43.30;45.90;43.40;100508;;;;577675;247;23081;-77
2023/07/15 06:33:11;;;;;;;3.58;2.12;;;44.30;44.20;44.00;100498;;;;566820;251;23112;-79
2023/07/15 06:35:39;;;;;;;4.30;2.08;;;44.90;43.70;44.60;100501;;;;577713;247;23143;-78
2023/07/15 06:38:11;;;;;;;2.78;1.87;;;44.90;43.60;44.90;100501;;;;567347;251;23128;-79
2023/07/15 06:40:35;;;;;;;2.75;2.08;;;45.30;41.80;44.90;100504;;;;573636;246;23136;-80
2023/07/15 06:43:03;;;;;;;2.42;2.22;;;45.40;41.50;45.20;100502;;;;567299;251;23130;-79
2023/07/15 06:45:34;;;;;;;2.50;1.92;;;45.70;41.60;46.00;100511;;;;577981;246;23095;-79
2023/07/15 06:48:02;;;;;;;7.28;2.45;;;46.40;41.80;46.70;100499;;;;567367;251;23123;-79
2023/07/15 06:50:30;;;;;;;2.20;1.95;;;47.10;40.80;47.20;100502;;;;577920;246;23082;-77
2023/07/15 06:52:58;;;;;;;2.22;2.12;;;47.50;38.90;46.90;100505;;;;567298;251;23127;-79
2023/07/15 06:55:26;;;;;;;3.33;2.55;;;47.50;38.40;45.90;100506;;;;578087;247;23115;-79
2023/07/15 06:57:56;;;;;;;2.72;2.03;;;46.90;38.30;45.70;100499;;;;566998;251;23153;-78
2023/07/15 07:00:22;;;;;;;3.60;2.85;;;46.40;39.20;45.80;100505;;;;568088;247;35258;-79
2023/07/15 07:02:49;;;;;;;2.55;2.35;;;46.40;38.40;45.60;100504;;;;562614;251;23117;-79
2023/07/15 07:05:19;;;;;;;4.20;2.40;;;46.30;38.60;46.00;100509;;;;572839;247;23085;-78
2023/07/15 07:07:45;;;;;;;4.87;2.60;;;46.40;38.90;46.10;100508;;;;572753;245;24135;-78
2023/07/15 07:10:13;;;;;;;6.72;2.25;;;46.50;38.90;46.40;100502;;;;577572;247;23086;-78
2023/07/15 07:12:41;;;;;;;3.22;2.08;;;46.70;38.80;46.90;100508;;;;576900;244;23074;-79
2023/07/15 07:15:10;;;;;;;2.67;2.47;;;47.40;38.90;47.10;100511;;;;572698;245;23093;-80
2023/07/15 07:17:38;;;;;;;6.18;2.35;;;47.30;38.80;47.20;100504;;;;572485;247;23102;-80
2023/07/15 07:20:07;;;;;;;2.70;2.00;;;47.30;38.00;47.00;100507;;;;566508;251;23190;-78
2023/07/15 07:22:35;;;;;;;3.10;2.30;;;47.60;38.70;47.50;100501;;;;572769;247;23111;-78
2023/07/15 07:25:03;;;;;;;2.60;2.10;;;47.70;38.00;47.80;100490;;;;572822;247;23116;-77
2023/07/15 07:27:31;;;;;;;3.17;2.05;;;47.90;37.30;47.80;100492;;;;578902;244;23082;-79
2023/07/15 07:29:59;;;;;;;2.45;2.25;;;48.00;37.90;48.40;100501;;;;572876;245;23094;-78
2023/07/15 07:32:27;;;;;;;3.28;2.12;;;48.50;36.70;48.20;100495;;;;577623;247;24147;-79
2023/07/15 07:34:55;;;;;;;3.37;2.12;;;48.60;36.80;48.10;100500;;;;572921;247;23148;-79
2023/07/15 07:37:23;;;;;;;4.87;2.78;;;48.60;37.20;48.00;100487;;;;577683;247;23082;-79
2023/07/15 07:39:54;;;;;;;2.42;2.22;;;48.60;36.60;48.70;100484;;;;566483;251;23140;-78
2023/07/15 07:42:19;;;;;;;4.30;2.58;;;49.10;35.40;48.40;100486;;;;572421;247;23114;-78
2023/07/15 07:44:48;;;;;;;2.90;2.35;;;48.40;35.30;47.50;100482;;;;578542;244;23089;-79
2023/07/15 07:47:16;;;;;;;2.47;2.15;;;48.40;35.30;47.60;100477;;;;572881;246;24112;-79
2023/07/15 07:49:44;;;;;;;3.30;2.42;;;48.20;35.80;47.30;100467;;;;578195;246;23088;-78
2023/07/15 07:52:12;;;;;;;3.83;2.40;;;48.00;36.30;46.20;100465;;;;567942;251;23197;-79
2023/07/15 07:54:40;;;;;;;2.45;2.28;;;47.20;36.70;44.80;100474;;;;582572;246;24123;-80
2023/07/15 07:57:08;;;;;;;2.70;2.45;;;46.00;37.40;44.50;100476;;;;567500;251;23101;-79
2023/07/15 07:59:36;;;;;;;2.60;2.40;;;45.30;38.30;44.90;100468;;;;578150;246;23095;-78
2023/07/15 08:02:04;;;;;;;3.15;2.03;;;45.30;38.30;46.40;100476;;;;567333;251;23110;-78
2023/07/15 08:04:31;;;;;;;4.47;2.28;;;46.40;38.20;47.10;100464;;;;573531;246;23135;-78
2023/07/15 08:06:59;;;;;;;3.10;2.80;;;47.20;37.50;46.90;100464;;;;567191;251;23110;-79
2023/07/15 08:09:27;;;;;;;2.70;2.50;;;47.30;36.70;46.90;100466;;;;577496;247;23139;-78
2023/07/15 08:11:55;;;;;;;3.20;2.60;;;47.30;36.70;46.70;100466;;;;566858;251;23115;-80
2023/07/15 08:14:24;;;;;;;2.95;2.45;;;47.10;36.40;46.30;100469;;;;577495;247;23116;-79
2023/07/15 08:16:56;;;;;;;3.47;2.40;;;46.30;36.80;45.40;100476;;;;567113;251;23124;-81
2023/07/15 08:19:21;;;;;;;3.80;2.45;;;46.30;36.80;44.10;100473;;;;562479;251;23137;-79
2023/07/15 08:21:48;;;;;;;5.72;2.40;;;45.20;37.60;43.60;100469;;;;577951;247;23092;-78
2023/07/15 08:24:16;;;;;;;2.40;2.22;;;44.50;38.10;44.10;100466;;;;577970;247;23191;-79
2023/07/15 08:26:44;;;;;;;3.65;2.45;;;44.50;38.60;44.90;100463;;;;566668;251;24176;-78
2023/07/15 08:29:12;;;;;;;4.15;2.28;;;45.30;37.80;45.20;100472;;;;577545;247;23131;-79
2023/07/15 08:31:46;;;;;;;4.32;2.60;;;45.70;37.50;45.10;100472;;;;566876;251;23126;-80
2023/07/15 08:34:11;;;;;;;2.92;2.03;;;45.70;37.30;45.30;100474;;;;562508;251;23136;-78
2023/07/15 08:36:41;;;;;;;2.62;2.35;;;45.90;36.60;45.10;100464;;;;587900;244;23081;-79
2023/07/15 08:39:09;;;;;;;2.35;2.03;;;45.70;36.70;45.60;100471;;;;572863;245;23092;-79
2023/07/15 08:41:38;;;;;;;3.00;2.20;;;46.60;36.30;46.00;100473;;;;577342;247;23089;-79
2023/07/15 08:44:06;;;;;;;2.22;2.10;;;46.60;36.30;46.10;100471;;;;587476;240;23082;-79
2023/07/15 08:46:34;;;;;;;3.90;2.28;;;46.80;35.80;45.90;100474;;;;572943;245;23104;-79
2023/07/15 08:49:02;;;;;;;2.10;1.90;;;46.80;35.90;45.80;100471;;;;577647;247;23081;-79
2023/07/15 08:51:33;;;;;;;3.08;1.85;;;46.60;36.30;46.30;100471;;;;566699;251;23123;-79
2023/07/15 08:54:07;;;;;;;2.05;1.95;;;47.00;35.90;47.10;100473;;;;572552;247;23099;-80
2023/07/15 08:56:32;;;;;;;2.37;2.00;;;47.50;36.20;47.90;100460;;;;562196;251;23121;-80
2023/07/15 08:59:00;;;;;;;7.03;1.95;;;48.40;34.60;47.50;100463;;;;581267;242;23134;-79
2023/07/15 09:01:28;;;;;;;2.37;2.17;;;48.60;34.00;47.60;100465;;;;573463;246;23081;-80
2023/07/15 09:03:57;;;;;;;1.90;1.80;;;48.30;33.90;47.10;100459;;;;578470;246;24142;-79
2023/07/15 09:06:28;;;;;;;2.30;2.20;;;48.20;33.80;46.90;100467;;;;562421;251;35396;-80
2023/07/15 09:08:56;;;;;;;3.10;2.15;;;48.10;33.90;46.20;100464;;;;562887;251;23194;-80
2023/07/15 09:11:21;;;;;;;2.40;2.20;;;47.60;34.10;45.90;100466;;;;562643;251;23132;-80
2023/07/15 09:13:49;;;;;;;2.47;2.00;;;47.20;34.70;45.70;100467;;;;572540;246;23144;-79
2023/07/15 09:16:17;;;;;;;2.25;2.05;;;46.90;34.90;46.50;100460;;;;577887;246;23094;-79
2023/07/15 09:18:45;;;;;;;3.50;2.20;;;48.00;34.30;47.00;100466;;;;562839;251;24176;-80
2023/07/15 09:21:13;;;;;;;3.62;1.92;;;47.90;34.20;47.40;100461;;;;578962;244;23114;-80
2023/07/15 09:23:42;;;;;;;1.62;1.60;;;48.30;33.70;47.70;100462;;;;579265;244;23102;-80
2023/07/15 09:26:09;;;;;;;3.47;1.67;;;48.70;33.30;48.20;100458;;;;579011;244;23097;-79
2023/07/15 09:28:37;;;;;;;1.87;1.80;;;49.20;33.70;48.90;100462;;;;579341;244;23081;-80
2023/07/15 09:31:06;;;;;;;3.20;1.95;;;50.70;32.00;49.80;100447;;;;585271;244;23071;-79
2023/07/15 09:33:42;;;;;;;3.60;2.10;;;51.20;31.50;50.00;100447;;;;573149;247;23112;-79
2023/07/15 09:36:06;;;;;;;2.70;2.53;;;50.90;31.30;49.40;100437;;;;563045;248;23146;-78
2023/07/15 09:38:34;;;;;;;6.85;2.10;;;50.90;31.30;48.70;100441;;;;572989;247;23102;-79
2023/07/15 09:41:04;;;;;;;5.80;2.22;;;50.40;31.60;48.30;100436;;;;578914;244;23121;-80
2023/07/15 09:43:47;;;;;;;2.10;1.87;;;49.80;31.80;47.80;100435;;;;572429;246;24174;-79
2023/07/15 09:46:15;;;;;;;1.80;1.70;;;49.40;32.00;46.80;100434;;;;572601;247;24132;-80
2023/07/15 09:48:46;;;;;;;1.98;1.87;;;48.60;32.60;46.80;100439;;;;578472;244;23054;-80
2023/07/15 09:51:14;;;;;;;2.10;2.00;;;48.30;32.90;47.30;100428;;;;578545;244;23055;-80
2023/07/15 09:53:58;;;;;;;3.37;2.08;;;48.60;32.50;47.20;100417;;;;578798;244;23117;-81
2023/07/15 09:56:28;;;;;;;7.37;2.50;;;48.60;32.20;47.40;100423;;;;578297;244;23181;-79
2023/07/15 09:58:56;;;;;;;3.87;2.25;;;48.80;32.00;47.10;100416;;;;577968;244;23073;-79
2023/07/15 10:01:33;;;;;;;2.20;2.00;;;48.60;32.00;46.70;100417;;;;572395;247;23127;-79
2023/07/15 10:04:37;;;;;;;2.28;2.08;;;48.30;32.20;46.30;100403;;;;572372;247;23159;-79
2023/07/15 10:07:05;;;;;;;2.28;2.03;;;47.90;32.30;45.90;100409;;;;562600;251;23188;-79
2023/07/15 10:09:32;;;;;;;3.03;2.10;;;47.40;32.80;45.80;100407;;;;573980;244;35077;-79
2023/07/15 10:12:01;;;;;;;2.05;1.85;;;47.40;32.80;45.60;100409;;;;579131;242;23125;-78
2023/07/15 10:14:31;;;;;;;3.37;1.92;;;47.20;32.80;45.40;100403;;;;579735;244;23069;-80
2023/07/15 10:17:11;;;;;;;2.87;2.10;;;47.10;32.90;45.70;100412;;;;578939;244;23065;-80
2023/07/15 10:19:51;;;;;;;2.25;2.05;;;47.20;33.50;44.80;100412;;;;585469;244;23093;-78
2023/07/15 10:22:19;;;;;;;3.85;2.20;;;46.60;32.70;43.80;100410;;;;578553;244;23085;-79
2023/07/15 10:24:53;;;;;;;2.25;2.08;;;45.60;33.60;42.90;100413;;;;578832;244;23128;-78
2023/07/15 10:27:24;;;;;;;2.58;1.90;;;43.50;35.10;41.90;100408;;;;578813;244;23112;-80
2023/07/15 10:29:50;;;;;;;1.90;1.80;;;42.80;35.60;41.30;100418;;;;578571;244;23191;-79
2023/07/15 10:32:18;;;;;;;2.00;1.90;;;42.80;35.60;40.80;100408;;;;572923;247;24242;-80
2023/07/15 10:34:52;;;;;;;2.00;1.87;;;42.10;36.30;40.20;100395;;;;577574;247;23096;-80
2023/07/15 10:37:17;;;;;;;1.90;1.80;;;41.60;37.50;40.30;100397;;;;578636;244;23055;-80
2023/07/15 10:39:47;;;;;;;1.80;1.70;;;41.50;36.90;40.10;100402;;;;579149;244;23140;-80
2023/07/15 10:42:15;;;;;;;2.53;2.22;;;41.40;37.10;39.60;100383;;;;573008;245;24145;-79
2023/07/15 10:44:46;;;;;;;3.58;2.20;;;40.90;37.20;39.10;100378;;;;572531;247;23122;-79
2023/07/15 10:47:17;;;;;;;3.83;2.20;;;40.30;38.20;38.20;100375;;;;572062;247;23102;-79
2023/07/15 10:49:45;;;;;;;2.12;2.03;;;39.40;38.60;36.90;100370;;;;570648;251;23128;-77
2023/07/15 10:52:13;;;;;;;2.20;2.10;;;38.00;40.30;36.10;100366;;;;568163;251;23128;-78
2023/07/15 10:54:41;;;;;;;10.07;2.47;;;36.90;42.00;35.20;100362;;;;562543;251;23195;-78
2023/07/15 10:57:12;;;;;;;2.05;1.85;;;35.90;42.10;34.30;100363;;;;571063;251;23155;-78
2023/07/15 10:59:40;;;;;;;2.15;2.03;;;34.90;42.70;33.60;100352;;;;572726;247;23133;-79
2023/07/15 11:02:10;;;;;;;2.03;1.85;;;34.10;44.00;32.80;100351;;;;578820;244;23066;-78
2023/07/15 11:04:36;;;;;;;2.10;2.00;;;33.30;45.20;32.00;100349;;;;578676;244;23164;-78
2023/07/15 11:07:12;;;;;;;3.12;1.85;;;32.50;46.70;31.30;100357;;;;578732;244;23087;-77
2023/07/15 11:09:40;;;;;;;2.30;2.00;;;31.90;47.20;30.70;100354;;;;578840;244;23113;-78
2023/07/15 11:12:08;;;;;;;1.83;1.73;;;31.20;48.50;30.20;100347;;;;578784;244;23066;-77
2023/07/15 11:14:40;;;;;;;2.08;1.90;;;30.70;49.30;29.80;100334;;;;578640;244;23114;-78
2023/07/15 11:17:07;;;;;;;1.77;1.67;;;30.30;49.70;29.60;100341;;;;577933;244;23198;-78